sensor_id;sensor_type;location;lat;lon;timestamp;temperature;humidity
15922;DHT22;8060;50.948;3.146;2023-11-25T00:01:04;6.80;99.90
15922;DHT22;8060;50.948;3.146;2023-11-25T00:03:33;6.80;99.90
15922;DHT22;8060;50.948;3.146;2023-11-25T00:06:01;6.80;99.90
15922;DHT22;8060;50.948;3.146;2023-11-25T00:08:30;6.80;99.90
15922;DHT22;8060;50.948;3.146;2023-11-25T00:10:58;6.90;99.90
15922;DHT22;8060;50.948;3.146;2023-11-25T00:13:26;6.90;99.90
15922;DHT22;8060;50.948;3.146;2023-11-25T00:15:55;6.90;99.90
15922;DHT22;8060;50.948;3.146;2023-11-25T00:18:24;6.80;99.90
15922;DHT22;8060;50.948;3.146;2023-11-25T00:20:52;6.70;99.90
15922;DHT22;8060;50.948;3.146;2023-11-25T00:23:20;6.70;99.90
15922;DHT22;8060;50.948;3.146;2023-11-25T00:25:48;6.70;99.90
15922;DHT22;8060;50.948;3.146;2023-11-25T00:28:20;6.60;99.90
15922;DHT22;8060;50.948;3.146;2023-11-25T00:30:48;6.60;99.90
15922;DHT22;8060;50.948;3.146;2023-11-25T00:33:17;6.50;99.90
15922;DHT22;8060;50.948;3.146;2023-11-25T00:35:46;6.40;99.90
15922;DHT22;8060;50.948;3.146;2023-11-25T00:38:14;6.40;99.90
15922;DHT22;8060;50.948;3.146;2023-11-25T00:40:43;6.50;99.90
15922;DHT22;8060;50.948;3.146;2023-11-25T00:43:11;6.50;99.90
15922;DHT22;8060;50.948;3.146;2023-11-25T00:45:39;6.50;99.90
15922;DHT22;8060;50.948;3.146;2023-11-25T00:48:09;6.70;99.90
15922;DHT22;8060;50.948;3.146;2023-11-25T00:50:38;6.60;99.90
15922;DHT22;8060;50.948;3.146;2023-11-25T00:53:06;6.60;99.90
15922;DHT22;8060;50.948;3.146;2023-11-25T00:55:35;6.60;99.90
15922;DHT22;8060;50.948;3.146;2023-11-25T00:58:03;6.50;99.90
15922;DHT22;8060;50.948;3.146;2023-11-25T01:00:33;6.50;99.90
15922;DHT22;8060;50.948;3.146;2023-11-25T01:03:01;6.50;99.90
15922;DHT22;8060;50.948;3.146;2023-11-25T01:05:29;6.50;99.90
15922;DHT22;8060;50.948;3.146;2023-11-25T01:07:58;6.40;99.90
15922;DHT22;8060;50.948;3.146;2023-11-25T01:10:26;6.40;99.90
15922;DHT22;8060;50.948;3.146;2023-11-25T01:12:55;6.40;99.90
15922;DHT22;8060;50.948;3.146;2023-11-25T01:15:23;6.50;99.90
15922;DHT22;8060;50.948;3.146;2023-11-25T01:17:52;6.60;99.90
15922;DHT22;8060;50.948;3.146;2023-11-25T01:20:20;6.50;99.90
15922;DHT22;8060;50.948;3.146;2023-11-25T01:22:48;6.60;99.90
15922;DHT22;8060;50.948;3.146;2023-11-25T01:25:18;6.60;99.90
15922;DHT22;8060;50.948;3.146;2023-11-25T01:27:46;6.70;99.90
15922;DHT22;8060;50.948;3.146;2023-11-25T01:30:14;6.80;99.90
15922;DHT22;8060;50.948;3.146;2023-11-25T01:32:42;6.80;99.90
15922;DHT22;8060;50.948;3.146;2023-11-25T01:35:10;6.80;99.90
15922;DHT22;8060;50.948;3.146;2023-11-25T01:37:39;6.80;99.90
15922;DHT22;8060;50.948;3.146;2023-11-25T01:40:08;6.80;99.90
15922;DHT22;8060;50.948;3.146;2023-11-25T01:42:39;6.90;99.90
15922;DHT22;8060;50.948;3.146;2023-11-25T01:45:08;6.90;99.90
15922;DHT22;8060;50.948;3.146;2023-11-25T01:47:37;7.00;99.90
15922;DHT22;8060;50.948;3.146;2023-11-25T01:50:06;7.00;99.90
15922;DHT22;8060;50.948;3.146;2023-11-25T01:52:35;7.00;99.90
15922;DHT22;8060;50.948;3.146;2023-11-25T01:55:05;7.10;99.90
15922;DHT22;8060;50.948;3.146;2023-11-25T01:57:36;7.10;99.90
15922;DHT22;8060;50.948;3.146;2023-11-25T02:00:07;7.10;99.90
15922;DHT22;8060;50.948;3.146;2023-11-25T02:02:36;7.10;99.90
15922;DHT22;8060;50.948;3.146;2023-11-25T02:05:06;7.10;99.90
15922;DHT22;8060;50.948;3.146;2023-11-25T02:07:35;7.20;99.90
15922;DHT22;8060;50.948;3.146;2023-11-25T02:10:04;7.20;99.90
15922;DHT22;8060;50.948;3.146;2023-11-25T02:12:33;7.20;99.90
15922;DHT22;8060;50.948;3.146;2023-11-25T02:15:09;7.10;99.90
15922;DHT22;8060;50.948;3.146;2023-11-25T02:17:40;7.00;99.90
15922;DHT22;8060;50.948;3.146;2023-11-25T02:20:10;7.10;99.90
15922;DHT22;8060;50.948;3.146;2023-11-25T02:22:42;7.00;99.90
15922;DHT22;8060;50.948;3.146;2023-11-25T02:25:12;7.00;99.90
15922;DHT22;8060;50.948;3.146;2023-11-25T02:27:42;6.90;99.90
15922;DHT22;8060;50.948;3.146;2023-11-25T02:30:11;6.80;99.90
15922;DHT22;8060;50.948;3.146;2023-11-25T02:32:40;6.80;99.90
15922;DHT22;8060;50.948;3.146;2023-11-25T02:35:08;6.70;99.90
15922;DHT22;8060;50.948;3.146;2023-11-25T02:37:38;6.60;99.90
15922;DHT22;8060;50.948;3.146;2023-11-25T02:40:08;6.50;99.90
15922;DHT22;8060;50.948;3.146;2023-11-25T02:42:45;6.60;99.90
15922;DHT22;8060;50.948;3.146;2023-11-25T02:45:16;6.50;99.90
15922;DHT22;8060;50.948;3.146;2023-11-25T02:47:45;6.50;99.90
15922;DHT22;8060;50.948;3.146;2023-11-25T02:50:16;6.50;99.90
15922;DHT22;8060;50.948;3.146;2023-11-25T02:52:45;6.50;99.90
15922;DHT22;8060;50.948;3.146;2023-11-25T02:55:13;6.60;99.90
15922;DHT22;8060;50.948;3.146;2023-11-25T02:57:44;6.60;99.90
15922;DHT22;8060;50.948;3.146;2023-11-25T03:00:15;6.60;99.90
15922;DHT22;8060;50.948;3.146;2023-11-25T03:02:57;6.60;99.90
15922;DHT22;8060;50.948;3.146;2023-11-25T03:05:35;6.60;99.90
15922;DHT22;8060;50.948;3.146;2023-11-25T03:08:06;6.60;99.90
15922;DHT22;8060;50.948;3.146;2023-11-25T03:10:38;6.60;99.90
15922;DHT22;8060;50.948;3.146;2023-11-25T03:13:10;6.50;99.90
15922;DHT22;8060;50.948;3.146;2023-11-25T03:15:39;6.50;99.90
15922;DHT22;8060;50.948;3.146;2023-11-25T03:18:08;6.50;99.90
15922;DHT22;8060;50.948;3.146;2023-11-25T03:20:37;6.50;99.90
15922;DHT22;8060;50.948;3.146;2023-11-25T03:23:05;6.50;99.90
15922;DHT22;8060;50.948;3.146;2023-11-25T03:25:34;6.60;99.90
15922;DHT22;8060;50.948;3.146;2023-11-25T03:28:03;6.60;99.90
15922;DHT22;8060;50.948;3.146;2023-11-25T03:30:36;6.60;99.90
15922;DHT22;8060;50.948;3.146;2023-11-25T03:33:05;6.60;99.90
15922;DHT22;8060;50.948;3.146;2023-11-25T03:35:33;6.60;99.90
15922;DHT22;8060;50.948;3.146;2023-11-25T03:38:01;6.60;99.90
15922;DHT22;8060;50.948;3.146;2023-11-25T03:40:29;6.70;99.90
15922;DHT22;8060;50.948;3.146;2023-11-25T03:42:58;6.60;99.90
15922;DHT22;8060;50.948;3.146;2023-11-25T03:45:26;6.60;99.90
15922;DHT22;8060;50.948;3.146;2023-11-25T03:47:56;6.60;99.90
15922;DHT22;8060;50.948;3.146;2023-11-25T03:50:24;6.60;99.90
15922;DHT22;8060;50.948;3.146;2023-11-25T03:52:52;6.60;99.90
15922;DHT22;8060;50.948;3.146;2023-11-25T03:55:21;6.50;99.90
15922;DHT22;8060;50.948;3.146;2023-11-25T03:57:52;6.50;99.90
15922;DHT22;8060;50.948;3.146;2023-11-25T04:00:20;6.50;99.90
15922;DHT22;8060;50.948;3.146;2023-11-25T04:02:49;6.60;99.90
15922;DHT22;8060;50.948;3.146;2023-11-25T04:05:20;6.60;99.90
15922;DHT22;8060;50.948;3.146;2023-11-25T04:07:50;6.70;99.90
15922;DHT22;8060;50.948;3.146;2023-11-25T04:10:19;6.60;99.90
15922;DHT22;8060;50.948;3.146;2023-11-25T04:12:49;6.70;99.90
15922;DHT22;8060;50.948;3.146;2023-11-25T04:15:18;6.70;99.90
15922;DHT22;8060;50.948;3.146;2023-11-25T04:17:47;6.70;99.90
15922;DHT22;8060;50.948;3.146;2023-11-25T04:20:19;6.70;99.90
15922;DHT22;8060;50.948;3.146;2023-11-25T04:22:56;6.70;99.90
15922;DHT22;8060;50.948;3.146;2023-11-25T04:25:26;6.60;99.90
15922;DHT22;8060;50.948;3.146;2023-11-25T04:27:55;6.60;99.90
15922;DHT22;8060;50.948;3.146;2023-11-25T04:30:23;6.50;99.90
15922;DHT22;8060;50.948;3.146;2023-11-25T04:32:51;6.60;99.90
15922;DHT22;8060;50.948;3.146;2023-11-25T04:35:20;6.60;99.90
15922;DHT22;8060;50.948;3.146;2023-11-25T04:37:48;6.60;99.90
15922;DHT22;8060;50.948;3.146;2023-11-25T04:40:17;6.60;99.90
15922;DHT22;8060;50.948;3.146;2023-11-25T04:42:45;6.60;99.90
15922;DHT22;8060;50.948;3.146;2023-11-25T04:45:13;6.60;99.90
15922;DHT22;8060;50.948;3.146;2023-11-25T04:47:45;6.60;99.90
15922;DHT22;8060;50.948;3.146;2023-11-25T04:50:14;6.60;99.90
15922;DHT22;8060;50.948;3.146;2023-11-25T04:52:44;6.60;99.90
15922;DHT22;8060;50.948;3.146;2023-11-25T04:55:13;6.60;99.90
15922;DHT22;8060;50.948;3.146;2023-11-25T04:57:42;6.60;99.90
15922;DHT22;8060;50.948;3.146;2023-11-25T05:00:12;6.70;99.90
15922;DHT22;8060;50.948;3.146;2023-11-25T05:02:42;6.80;99.90
15922;DHT22;8060;50.948;3.146;2023-11-25T05:05:10;6.80;99.90
15922;DHT22;8060;50.948;3.146;2023-11-25T05:07:39;6.80;99.90
15922;DHT22;8060;50.948;3.146;2023-11-25T05:10:09;6.80;99.90
15922;DHT22;8060;50.948;3.146;2023-11-25T05:12:39;6.70;99.90
15922;DHT22;8060;50.948;3.146;2023-11-25T05:15:10;6.80;99.90
15922;DHT22;8060;50.948;3.146;2023-11-25T05:17:38;6.80;99.90
15922;DHT22;8060;50.948;3.146;2023-11-25T05:20:08;6.80;99.90
15922;DHT22;8060;50.948;3.146;2023-11-25T05:22:42;6.80;99.90
15922;DHT22;8060;50.948;3.146;2023-11-25T05:25:12;6.80;99.90
15922;DHT22;8060;50.948;3.146;2023-11-25T05:27:42;6.80;99.90
15922;DHT22;8060;50.948;3.146;2023-11-25T05:30:10;6.80;99.90
15922;DHT22;8060;50.948;3.146;2023-11-25T05:32:42;6.70;99.90
15922;DHT22;8060;50.948;3.146;2023-11-25T05:35:11;6.70;99.90
15922;DHT22;8060;50.948;3.146;2023-11-25T05:37:41;6.70;99.90
15922;DHT22;8060;50.948;3.146;2023-11-25T05:40:12;6.70;99.90
15922;DHT22;8060;50.948;3.146;2023-11-25T05:42:42;6.70;99.90
15922;DHT22;8060;50.948;3.146;2023-11-25T05:45:16;6.70;99.90
15922;DHT22;8060;50.948;3.146;2023-11-25T05:47:47;6.80;99.90
15922;DHT22;8060;50.948;3.146;2023-11-25T05:50:16;6.90;99.90
15922;DHT22;8060;50.948;3.146;2023-11-25T05:52:47;7.00;99.90
15922;DHT22;8060;50.948;3.146;2023-11-25T05:55:17;7.00;99.90
15922;DHT22;8060;50.948;3.146;2023-11-25T05:57:47;7.10;99.90
15922;DHT22;8060;50.948;3.146;2023-11-25T06:00:18;7.00;99.90
15922;DHT22;8060;50.948;3.146;2023-11-25T06:02:46;7.00;99.90
15922;DHT22;8060;50.948;3.146;2023-11-25T06:05:15;7.10;99.90
15922;DHT22;8060;50.948;3.146;2023-11-25T06:07:43;7.00;99.90
15922;DHT22;8060;50.948;3.146;2023-11-25T06:10:11;7.10;99.90
15922;DHT22;8060;50.948;3.146;2023-11-25T06:12:41;7.00;99.90
15922;DHT22;8060;50.948;3.146;2023-11-25T06:15:09;7.10;99.90
15922;DHT22;8060;50.948;3.146;2023-11-25T06:17:38;7.10;99.90
15922;DHT22;8060;50.948;3.146;2023-11-25T06:20:07;7.10;99.90
15922;DHT22;8060;50.948;3.146;2023-11-25T06:22:36;7.10;99.90
15922;DHT22;8060;50.948;3.146;2023-11-25T06:25:08;7.00;99.90
15922;DHT22;8060;50.948;3.146;2023-11-25T06:27:36;7.00;99.90
15922;DHT22;8060;50.948;3.146;2023-11-25T06:30:06;7.00;99.90
15922;DHT22;8060;50.948;3.146;2023-11-25T06:32:34;7.00;99.90
15922;DHT22;8060;50.948;3.146;2023-11-25T06:35:04;6.90;99.90
15922;DHT22;8060;50.948;3.146;2023-11-25T06:37:33;6.90;99.90
15922;DHT22;8060;50.948;3.146;2023-11-25T06:40:03;6.90;99.90
15922;DHT22;8060;50.948;3.146;2023-11-25T06:42:32;7.00;99.90
15922;DHT22;8060;50.948;3.146;2023-11-25T06:45:01;6.90;99.90
15922;DHT22;8060;50.948;3.146;2023-11-25T06:47:30;6.90;99.90
15922;DHT22;8060;50.948;3.146;2023-11-25T06:49:59;7.00;99.90
15922;DHT22;8060;50.948;3.146;2023-11-25T06:52:27;6.90;99.90
15922;DHT22;8060;50.948;3.146;2023-11-25T06:54:55;6.90;99.90
15922;DHT22;8060;50.948;3.146;2023-11-25T06:57:27;6.90;99.90
15922;DHT22;8060;50.948;3.146;2023-11-25T06:59:55;6.90;99.90
15922;DHT22;8060;50.948;3.146;2023-11-25T07:02:23;6.90;99.90
15922;DHT22;8060;50.948;3.146;2023-11-25T07:04:55;6.90;99.90
15922;DHT22;8060;50.948;3.146;2023-11-25T07:07:23;7.00;99.90
15922;DHT22;8060;50.948;3.146;2023-11-25T07:09:51;7.10;99.90
15922;DHT22;8060;50.948;3.146;2023-11-25T07:12:19;7.20;99.90
15922;DHT22;8060;50.948;3.146;2023-11-25T07:14:48;7.20;99.90
15922;DHT22;8060;50.948;3.146;2023-11-25T07:17:16;7.20;99.90
15922;DHT22;8060;50.948;3.146;2023-11-25T07:19:44;7.20;99.90
15922;DHT22;8060;50.948;3.146;2023-11-25T07:22:14;7.20;99.90
15922;DHT22;8060;50.948;3.146;2023-11-25T07:24:42;7.30;99.90
15922;DHT22;8060;50.948;3.146;2023-11-25T07:27:13;7.30;99.90
15922;DHT22;8060;50.948;3.146;2023-11-25T07:29:45;7.30;99.90
15922;DHT22;8060;50.948;3.146;2023-11-25T07:32:13;7.40;99.90
15922;DHT22;8060;50.948;3.146;2023-11-25T07:34:41;7.40;99.90
15922;DHT22;8060;50.948;3.146;2023-11-25T07:37:10;7.30;99.90
15922;DHT22;8060;50.948;3.146;2023-11-25T07:39:40;7.30;99.90
15922;DHT22;8060;50.948;3.146;2023-11-25T07:42:09;7.30;99.90
15922;DHT22;8060;50.948;3.146;2023-11-25T07:44:37;7.30;99.90
15922;DHT22;8060;50.948;3.146;2023-11-25T07:47:05;7.30;99.90
15922;DHT22;8060;50.948;3.146;2023-11-25T07:49:34;7.30;99.90
15922;DHT22;8060;50.948;3.146;2023-11-25T07:52:04;7.40;99.90
15922;DHT22;8060;50.948;3.146;2023-11-25T07:54:32;7.30;99.90
15922;DHT22;8060;50.948;3.146;2023-11-25T07:57:01;7.30;99.90
15922;DHT22;8060;50.948;3.146;2023-11-25T07:59:30;7.20;99.90
15922;DHT22;8060;50.948;3.146;2023-11-25T08:01:58;7.20;99.90
15922;DHT22;8060;50.948;3.146;2023-11-25T08:04:26;7.20;99.90
15922;DHT22;8060;50.948;3.146;2023-11-25T08:06:54;7.30;99.90
15922;DHT22;8060;50.948;3.146;2023-11-25T08:09:23;7.20;99.90
15922;DHT22;8060;50.948;3.146;2023-11-25T08:11:51;7.20;99.90
15922;DHT22;8060;50.948;3.146;2023-11-25T08:14:20;7.20;99.90
15922;DHT22;8060;50.948;3.146;2023-11-25T08:16:48;7.30;99.90
15922;DHT22;8060;50.948;3.146;2023-11-25T08:19:16;7.40;99.90
15922;DHT22;8060;50.948;3.146;2023-11-25T08:21:48;7.40;99.90
15922;DHT22;8060;50.948;3.146;2023-11-25T08:24:16;7.30;99.90
15922;DHT22;8060;50.948;3.146;2023-11-25T08:26:47;7.30;99.90
15922;DHT22;8060;50.948;3.146;2023-11-25T08:29:15;7.30;99.90
15922;DHT22;8060;50.948;3.146;2023-11-25T08:31:46;7.30;99.90
15922;DHT22;8060;50.948;3.146;2023-11-25T08:34:14;7.20;99.90
15922;DHT22;8060;50.948;3.146;2023-11-25T08:36:43;7.30;99.90
15922;DHT22;8060;50.948;3.146;2023-11-25T08:39:20;7.20;99.90
15922;DHT22;8060;50.948;3.146;2023-11-25T08:41:53;7.30;99.90
15922;DHT22;8060;50.948;3.146;2023-11-25T08:44:24;7.30;99.90
15922;DHT22;8060;50.948;3.146;2023-11-25T08:46:54;7.30;99.90
15922;DHT22;8060;50.948;3.146;2023-11-25T08:49:25;7.40;99.90
15922;DHT22;8060;50.948;3.146;2023-11-25T08:51:54;7.40;99.90
15922;DHT22;8060;50.948;3.146;2023-11-25T08:54:22;7.30;99.90
15922;DHT22;8060;50.948;3.146;2023-11-25T08:56:50;7.30;99.90
15922;DHT22;8060;50.948;3.146;2023-11-25T08:59:20;7.40;99.90
15922;DHT22;8060;50.948;3.146;2023-11-25T09:01:48;7.40;99.90
15922;DHT22;8060;50.948;3.146;2023-11-25T09:04:20;7.40;99.90
15922;DHT22;8060;50.948;3.146;2023-11-25T09:06:49;7.40;99.90
15922;DHT22;8060;50.948;3.146;2023-11-25T09:09:19;7.30;99.90
15922;DHT22;8060;50.948;3.146;2023-11-25T09:11:47;7.30;99.90
15922;DHT22;8060;50.948;3.146;2023-11-25T09:14:15;7.30;99.90
15922;DHT22;8060;50.948;3.146;2023-11-25T09:16:45;7.40;99.90
15922;DHT22;8060;50.948;3.146;2023-11-25T09:19:14;7.40;99.90
15922;DHT22;8060;50.948;3.146;2023-11-25T09:21:43;7.40;99.90
15922;DHT22;8060;50.948;3.146;2023-11-25T09:24:12;7.40;99.90
15922;DHT22;8060;50.948;3.146;2023-11-25T09:26:40;7.40;99.90
15922;DHT22;8060;50.948;3.146;2023-11-25T09:29:08;7.50;99.90
15922;DHT22;8060;50.948;3.146;2023-11-25T09:31:37;7.50;99.90
15922;DHT22;8060;50.948;3.146;2023-11-25T09:34:05;7.50;99.90
15922;DHT22;8060;50.948;3.146;2023-11-25T09:36:35;7.60;99.90
15922;DHT22;8060;50.948;3.146;2023-11-25T09:39:05;7.60;99.90
15922;DHT22;8060;50.948;3.146;2023-11-25T09:41:37;7.60;99.90
15922;DHT22;8060;50.948;3.146;2023-11-25T09:44:06;7.50;99.90
15922;DHT22;8060;50.948;3.146;2023-11-25T09:46:35;7.50;99.90
15922;DHT22;8060;50.948;3.146;2023-11-25T09:49:03;7.50;99.90
15922;DHT22;8060;50.948;3.146;2023-11-25T09:51:32;7.50;99.90
15922;DHT22;8060;50.948;3.146;2023-11-25T09:54:04;7.60;99.90
15922;DHT22;8060;50.948;3.146;2023-11-25T09:56:35;7.60;99.90
15922;DHT22;8060;50.948;3.146;2023-11-25T09:59:03;7.60;99.90
15922;DHT22;8060;50.948;3.146;2023-11-25T10:01:32;7.60;99.90
15922;DHT22;8060;50.948;3.146;2023-11-25T10:04:01;7.60;99.90
15922;DHT22;8060;50.948;3.146;2023-11-25T10:06:30;7.70;99.90
15922;DHT22;8060;50.948;3.146;2023-11-25T10:08:58;7.70;99.90
15922;DHT22;8060;50.948;3.146;2023-11-25T10:11:29;7.70;99.90
15922;DHT22;8060;50.948;3.146;2023-11-25T10:13:59;7.70;99.90
15922;DHT22;8060;50.948;3.146;2023-11-25T10:16:29;7.70;99.90
15922;DHT22;8060;50.948;3.146;2023-11-25T10:18:58;7.70;99.90
15922;DHT22;8060;50.948;3.146;2023-11-25T10:21:27;7.80;99.90
15922;DHT22;8060;50.948;3.146;2023-11-25T10:24:06;8.00;99.90
15922;DHT22;8060;50.948;3.146;2023-11-25T10:26:37;8.40;99.90
15922;DHT22;8060;50.948;3.146;2023-11-25T10:29:06;8.50;99.90
15922;DHT22;8060;50.948;3.146;2023-11-25T10:31:34;8.60;99.90
15922;DHT22;8060;50.948;3.146;2023-11-25T10:34:02;9.10;99.90
15922;DHT22;8060;50.948;3.146;2023-11-25T10:36:31;9.60;99.90
15922;DHT22;8060;50.948;3.146;2023-11-25T10:39:00;9.70;99.90
15922;DHT22;8060;50.948;3.146;2023-11-25T10:41:33;9.80;99.90
15922;DHT22;8060;50.948;3.146;2023-11-25T10:44:04;9.60;99.90
15922;DHT22;8060;50.948;3.146;2023-11-25T10:46:37;9.40;99.90
15922;DHT22;8060;50.948;3.146;2023-11-25T10:49:08;9.30;99.90
15922;DHT22;8060;50.948;3.146;2023-11-25T10:51:37;9.00;99.90
15922;DHT22;8060;50.948;3.146;2023-11-25T10:54:07;9.20;99.90
15922;DHT22;8060;50.948;3.146;2023-11-25T10:56:36;9.80;99.90
15922;DHT22;8060;50.948;3.146;2023-11-25T10:59:08;10.00;99.90
15922;DHT22;8060;50.948;3.146;2023-11-25T11:01:43;9.90;99.90
15922;DHT22;8060;50.948;3.146;2023-11-25T11:04:17;9.70;99.90
15922;DHT22;8060;50.948;3.146;2023-11-25T11:06:53;9.50;99.90
15922;DHT22;8060;50.948;3.146;2023-11-25T11:09:25;9.40;99.90
15922;DHT22;8060;50.948;3.146;2023-11-25T11:11:57;9.40;99.90
15922;DHT22;8060;50.948;3.146;2023-11-25T11:14:32;9.20;99.90
15922;DHT22;8060;50.948;3.146;2023-11-25T11:17:06;9.20;99.90
15922;DHT22;8060;50.948;3.146;2023-11-25T11:19:40;9.10;99.90
15922;DHT22;8060;50.948;3.146;2023-11-25T11:22:10;9.20;99.90
15922;DHT22;8060;50.948;3.146;2023-11-25T11:24:59;9.30;99.90
15922;DHT22;8060;50.948;3.146;2023-11-25T11:27:35;9.50;99.90
15922;DHT22;8060;50.948;3.146;2023-11-25T11:30:13;10.00;99.90
15922;DHT22;8060;50.948;3.146;2023-11-25T11:32:43;10.40;99.90
15922;DHT22;8060;50.948;3.146;2023-11-25T11:35:12;10.50;99.90
15922;DHT22;8060;50.948;3.146;2023-11-25T11:37:47;10.50;99.90
15922;DHT22;8060;50.948;3.146;2023-11-25T11:40:20;10.20;99.90
15922;DHT22;8060;50.948;3.146;2023-11-25T11:42:49;9.90;99.90
15922;DHT22;8060;50.948;3.146;2023-11-25T11:45:19;9.50;99.90
15922;DHT22;8060;50.948;3.146;2023-11-25T11:47:51;9.30;99.90
15922;DHT22;8060;50.948;3.146;2023-11-25T11:50:22;9.20;99.90
15922;DHT22;8060;50.948;3.146;2023-11-25T11:53:10;9.20;99.90
15922;DHT22;8060;50.948;3.146;2023-11-25T11:55:42;9.10;99.90
15922;DHT22;8060;50.948;3.146;2023-11-25T11:58:12;9.10;99.90
15922;DHT22;8060;50.948;3.146;2023-11-25T12:00:45;9.40;99.90
15922;DHT22;8060;50.948;3.146;2023-11-25T12:03:14;10.00;99.90
15922;DHT22;8060;50.948;3.146;2023-11-25T12:05:43;10.30;99.90
15922;DHT22;8060;50.948;3.146;2023-11-25T12:08:12;10.20;99.90
15922;DHT22;8060;50.948;3.146;2023-11-25T12:10:42;9.90;99.90
15922;DHT22;8060;50.948;3.146;2023-11-25T12:13:10;9.80;99.90
15922;DHT22;8060;50.948;3.146;2023-11-25T12:15:39;9.70;99.90
15922;DHT22;8060;50.948;3.146;2023-11-25T12:18:10;10.00;99.90
15922;DHT22;8060;50.948;3.146;2023-11-25T12:20:38;10.00;99.90
15922;DHT22;8060;50.948;3.146;2023-11-25T12:23:07;9.90;99.90
15922;DHT22;8060;50.948;3.146;2023-11-25T12:25:36;9.80;99.90
15922;DHT22;8060;50.948;3.146;2023-11-25T12:28:06;9.70;99.90
15922;DHT22;8060;50.948;3.146;2023-11-25T12:30:36;9.60;99.90
15922;DHT22;8060;50.948;3.146;2023-11-25T12:33:05;9.60;99.90
15922;DHT22;8060;50.948;3.146;2023-11-25T12:35:37;9.50;99.90
15922;DHT22;8060;50.948;3.146;2023-11-25T12:38:05;9.40;99.90
15922;DHT22;8060;50.948;3.146;2023-11-25T12:40:42;9.30;99.90
15922;DHT22;8060;50.948;3.146;2023-11-25T12:43:12;9.20;99.90
15922;DHT22;8060;50.948;3.146;2023-11-25T12:45:42;9.20;99.90
15922;DHT22;8060;50.948;3.146;2023-11-25T12:48:11;9.10;99.90
15922;DHT22;8060;50.948;3.146;2023-11-25T12:51:00;9.00;99.90
15922;DHT22;8060;50.948;3.146;2023-11-25T12:53:30;9.00;99.90
15922;DHT22;8060;50.948;3.146;2023-11-25T12:55:58;9.00;99.90
15922;DHT22;8060;50.948;3.146;2023-11-25T12:58:27;9.10;99.90
15922;DHT22;8060;50.948;3.146;2023-11-25T13:00:57;9.20;99.90
15922;DHT22;8060;50.948;3.146;2023-11-25T13:03:26;9.30;99.90
15922;DHT22;8060;50.948;3.146;2023-11-25T13:06:00;9.40;99.90
15922;DHT22;8060;50.948;3.146;2023-11-25T13:08:29;9.50;99.90
15922;DHT22;8060;50.948;3.146;2023-11-25T13:11:01;9.70;99.90
15922;DHT22;8060;50.948;3.146;2023-11-25T13:13:31;9.80;99.90
15922;DHT22;8060;50.948;3.146;2023-11-25T13:16:00;9.60;99.90
15922;DHT22;8060;50.948;3.146;2023-11-25T13:18:31;9.40;99.90
15922;DHT22;8060;50.948;3.146;2023-11-25T13:21:01;9.40;99.90
15922;DHT22;8060;50.948;3.146;2023-11-25T13:23:34;9.40;99.90
15922;DHT22;8060;50.948;3.146;2023-11-25T13:26:02;9.50;99.90
15922;DHT22;8060;50.948;3.146;2023-11-25T13:28:31;9.60;99.90
15922;DHT22;8060;50.948;3.146;2023-11-25T13:30:59;9.70;99.90
15922;DHT22;8060;50.948;3.146;2023-11-25T13:33:27;9.80;99.90
15922;DHT22;8060;50.948;3.146;2023-11-25T13:35:56;9.80;99.90
15922;DHT22;8060;50.948;3.146;2023-11-25T13:38:25;9.80;99.90
15922;DHT22;8060;50.948;3.146;2023-11-25T13:40:53;9.70;99.90
15922;DHT22;8060;50.948;3.146;2023-11-25T13:43:21;9.50;99.90
15922;DHT22;8060;50.948;3.146;2023-11-25T13:45:50;9.40;99.90
15922;DHT22;8060;50.948;3.146;2023-11-25T13:48:18;9.30;99.90
15922;DHT22;8060;50.948;3.146;2023-11-25T13:50:46;9.30;99.90
15922;DHT22;8060;50.948;3.146;2023-11-25T13:53:14;9.30;99.90
15922;DHT22;8060;50.948;3.146;2023-11-25T13:55:46;9.20;99.90
15922;DHT22;8060;50.948;3.146;2023-11-25T13:58:16;9.20;99.90
15922;DHT22;8060;50.948;3.146;2023-11-25T14:00:44;9.10;99.90
15922;DHT22;8060;50.948;3.146;2023-11-25T14:03:12;9.10;99.90
15922;DHT22;8060;50.948;3.146;2023-11-25T14:05:42;9.10;99.90
15922;DHT22;8060;50.948;3.146;2023-11-25T14:08:12;9.00;99.90
15922;DHT22;8060;50.948;3.146;2023-11-25T14:10:42;9.00;99.90
15922;DHT22;8060;50.948;3.146;2023-11-25T14:13:13;9.00;99.90
15922;DHT22;8060;50.948;3.146;2023-11-25T14:15:42;9.10;99.90
15922;DHT22;8060;50.948;3.146;2023-11-25T14:18:10;9.40;99.90
15922;DHT22;8060;50.948;3.146;2023-11-25T14:20:38;10.30;99.90
15922;DHT22;8060;50.948;3.146;2023-11-25T14:23:06;10.70;99.90
15922;DHT22;8060;50.948;3.146;2023-11-25T14:25:34;10.80;99.90
15922;DHT22;8060;50.948;3.146;2023-11-25T14:28:03;10.70;99.90
15922;DHT22;8060;50.948;3.146;2023-11-25T14:30:32;10.50;99.90
15922;DHT22;8060;50.948;3.146;2023-11-25T14:33:01;10.50;99.90
15922;DHT22;8060;50.948;3.146;2023-11-25T14:35:32;10.30;99.90
15922;DHT22;8060;50.948;3.146;2023-11-25T14:38:00;10.20;99.90
15922;DHT22;8060;50.948;3.146;2023-11-25T14:40:31;10.10;99.90
15922;DHT22;8060;50.948;3.146;2023-11-25T14:43:03;10.30;99.90
15922;DHT22;8060;50.948;3.146;2023-11-25T14:45:33;10.30;99.90
15922;DHT22;8060;50.948;3.146;2023-11-25T14:48:02;10.50;99.90
15922;DHT22;8060;50.948;3.146;2023-11-25T14:50:31;10.50;99.90
15922;DHT22;8060;50.948;3.146;2023-11-25T14:53:05;10.60;99.90
15922;DHT22;8060;50.948;3.146;2023-11-25T14:55:33;10.40;99.90
15922;DHT22;8060;50.948;3.146;2023-11-25T14:58:01;10.20;99.90
15922;DHT22;8060;50.948;3.146;2023-11-25T15:00:30;10.00;99.90
15922;DHT22;8060;50.948;3.146;2023-11-25T15:03:01;9.70;99.90
15922;DHT22;8060;50.948;3.146;2023-11-25T15:05:29;9.60;99.90
15922;DHT22;8060;50.948;3.146;2023-11-25T15:07:57;9.50;99.90
15922;DHT22;8060;50.948;3.146;2023-11-25T15:10:25;9.40;99.90
15922;DHT22;8060;50.948;3.146;2023-11-25T15:12:54;9.40;99.90
15922;DHT22;8060;50.948;3.146;2023-11-25T15:15:23;9.20;99.90
15922;DHT22;8060;50.948;3.146;2023-11-25T15:17:51;9.20;99.90
15922;DHT22;8060;50.948;3.146;2023-11-25T15:20:21;9.10;99.90
15922;DHT22;8060;50.948;3.146;2023-11-25T15:22:50;9.00;99.90
15922;DHT22;8060;50.948;3.146;2023-11-25T15:25:18;9.00;99.90
15922;DHT22;8060;50.948;3.146;2023-11-25T15:27:48;8.90;99.90
15922;DHT22;8060;50.948;3.146;2023-11-25T15:30:16;8.90;99.90
15922;DHT22;8060;50.948;3.146;2023-11-25T15:32:45;8.90;99.90
15922;DHT22;8060;50.948;3.146;2023-11-25T15:35:13;8.70;99.90
15922;DHT22;8060;50.948;3.146;2023-11-25T15:37:43;8.70;99.90
15922;DHT22;8060;50.948;3.146;2023-11-25T15:40:13;8.70;99.90
15922;DHT22;8060;50.948;3.146;2023-11-25T15:42:44;8.70;99.90
15922;DHT22;8060;50.948;3.146;2023-11-25T15:45:15;8.60;99.90
15922;DHT22;8060;50.948;3.146;2023-11-25T15:47:43;8.60;99.90
15922;DHT22;8060;50.948;3.146;2023-11-25T15:50:12;8.60;99.90
15922;DHT22;8060;50.948;3.146;2023-11-25T15:52:43;8.50;99.90
15922;DHT22;8060;50.948;3.146;2023-11-25T15:55:11;8.50;99.90
15922;DHT22;8060;50.948;3.146;2023-11-25T15:57:39;8.50;99.90
15922;DHT22;8060;50.948;3.146;2023-11-25T16:00:08;8.50;99.90
15922;DHT22;8060;50.948;3.146;2023-11-25T16:02:41;8.40;99.90
15922;DHT22;8060;50.948;3.146;2023-11-25T16:05:11;8.40;99.90
15922;DHT22;8060;50.948;3.146;2023-11-25T16:07:40;8.40;99.90
15922;DHT22;8060;50.948;3.146;2023-11-25T16:10:10;8.40;99.90
15922;DHT22;8060;50.948;3.146;2023-11-25T16:12:38;8.40;99.90
15922;DHT22;8060;50.948;3.146;2023-11-25T16:15:07;8.40;99.90